Portada
METAR-TAF:

METAR-TAF

Aeroports :

Aeroport Internacional de Viena

Viena, Àustria

latitud: 48-07N, longitud: 016-34E, altitud: 183 m

Observació

L'informe es va fer fa 23 minuts, a les 07:50 UTC
Vent 4 kt del Nord/Nord-Oest, variant entre Oest i Nord/Nord-Est
Temperatura 25°C
Humitat 54%
Pressió 1019 hPa
Visibilitat 10 km o més
sense núvols per sota de 1500 mi sense presència de cumulonimbus.

METAR: LOWW 180750Z 33004KT 280V020 CAVOK 25/15 Q1019 NOSIG

Hora: 10:13 (08:13 UTC)

Pronòstic

L'informe es va fer fa 2 hores i 58 minuts, a les 05:15 UTC
Pronòstic vàlid del 18 a les 06 UTC al 19 a les 12 UTC
Vent 2 kt amb direcció variable
Visibilitat 10 km o més
sense núvols per sota de 1500 mi sense presència de cumulonimbus.

TAF: LOWW 180515Z 1806/1912 VRB02KT CAVOK TX32/1814Z TN16/1903Z

Observacions i pronòstics meteorològics de més de 4000 aeroports (METAR i TAF).

Les estacions disponibles són els punts grocs i vermells al mapa.

Posi el ratolí al punt desitjat per veure el nom de l'estació.

Feu clic per veure les observacions i els pronòstics meteorològics.

Per canviar el mapa: feu clic els botons verds amb una creu de color negre per apropar; al botó verd amb un guió per allunyar la imatge; o en les fletxes verdes per a mapes adjacents.


METAR-TAF: